sensor_id;sensor_type;location;lat;lon;timestamp;pressure;altitude;pressure_sealevel;temperature;humidity
71857;BME280;63344;46.980;28.882;2023-03-14T00:00:12;101002.94;;;3.94;57.88
71857;BME280;63344;46.980;28.882;2023-03-14T00:03:00;100998.53;;;3.96;58.10
71857;BME280;63344;46.980;28.882;2023-03-14T00:05:27;101001.16;;;3.96;57.82
71857;BME280;63344;46.980;28.882;2023-03-14T00:07:54;100998.53;;;3.94;57.62
71857;BME280;63344;46.980;28.882;2023-03-14T00:10:21;101003.75;;;4.04;57.60
71857;BME280;63344;46.980;28.882;2023-03-14T00:12:48;100998.53;;;3.96;57.41
71857;BME280;63344;46.980;28.882;2023-03-14T00:15:16;101002.03;;;3.95;57.72
71857;BME280;63344;46.980;28.882;2023-03-14T00:17:43;101005.56;;;3.89;57.68
71857;BME280;63344;46.980;28.882;2023-03-14T00:20:11;101011.72;;;3.85;57.84
71857;BME280;63344;46.980;28.882;2023-03-14T00:22:39;101010.81;;;3.89;57.99
71857;BME280;63344;46.980;28.882;2023-03-14T00:25:10;101007.34;;;3.84;58.00
71857;BME280;63344;46.980;28.882;2023-03-14T00:27:37;101010.84;;;3.83;58.21
71857;BME280;63344;46.980;28.882;2023-03-14T00:30:05;101015.28;;;3.79;58.26
71857;BME280;63344;46.980;28.882;2023-03-14T00:32:35;100996.03;;;3.71;58.63
71857;BME280;63344;46.980;28.882;2023-03-14T00:35:03;101005.66;;;3.71;58.60
71857;BME280;63344;46.980;28.882;2023-03-14T00:37:31;101013.53;;;3.72;58.68
71857;BME280;63344;46.980;28.882;2023-03-14T00:39:59;100996.91;;;3.70;58.82
71857;BME280;63344;46.980;28.882;2023-03-14T00:42:26;100989.06;;;3.63;59.23
71857;BME280;63344;46.980;28.882;2023-03-14T00:44:54;100995.19;;;3.66;59.23
71857;BME280;63344;46.980;28.882;2023-03-14T00:47:21;100994.31;;;3.63;59.25
71857;BME280;63344;46.980;28.882;2023-03-14T00:49:48;100990.81;;;3.59;59.63
71857;BME280;63344;46.980;28.882;2023-03-14T00:52:15;100989.97;;;3.55;59.65
71857;BME280;63344;46.980;28.882;2023-03-14T00:54:43;100983.84;;;3.56;59.63
71857;BME280;63344;46.980;28.882;2023-03-14T00:57:10;100977.72;;;3.54;59.60
71857;BME280;63344;46.980;28.882;2023-03-14T00:59:38;100978.63;;;3.52;60.15
71857;BME280;63344;46.980;28.882;2023-03-14T01:02:05;100978.59;;;3.53;59.92
71857;BME280;63344;46.980;28.882;2023-03-14T01:04:34;100969.88;;;3.50;59.63
71857;BME280;63344;46.980;28.882;2023-03-14T01:07:01;100972.47;;;3.54;59.70
71857;BME280;63344;46.980;28.882;2023-03-14T01:09:29;100967.22;;;3.56;59.51
71857;BME280;63344;46.980;28.882;2023-03-14T01:11:56;100974.19;;;3.55;59.29
71857;BME280;63344;46.980;28.882;2023-03-14T01:14:24;100982.06;;;3.55;59.21
71857;BME280;63344;46.980;28.882;2023-03-14T01:16:51;100958.50;;;3.46;59.18
71857;BME280;63344;46.980;28.882;2023-03-14T01:19:19;100968.13;;;3.47;59.12
71857;BME280;63344;46.980;28.882;2023-03-14T01:21:46;100963.72;;;3.49;59.10
71857;BME280;63344;46.980;28.882;2023-03-14T01:24:13;100960.25;;;3.44;59.07
71857;BME280;63344;46.980;28.882;2023-03-14T01:26:41;100956.78;;;3.42;59.14
71857;BME280;63344;46.980;28.882;2023-03-14T01:29:08;100955.91;;;3.40;59.15
71857;BME280;63344;46.980;28.882;2023-03-14T01:31:35;100961.16;;;3.38;58.78
71857;BME280;63344;46.980;28.882;2023-03-14T01:34:03;100952.44;;;3.32;59.04
71857;BME280;63344;46.980;28.882;2023-03-14T01:36:31;100954.19;;;3.34;58.96
71857;BME280;63344;46.980;28.882;2023-03-14T01:38:59;100944.56;;;3.29;59.18
71857;BME280;63344;46.980;28.882;2023-03-14T01:41:27;100938.41;;;3.33;59.16
71857;BME280;63344;46.980;28.882;2023-03-14T01:43:57;100934.97;;;3.25;59.02
71857;BME280;63344;46.980;28.882;2023-03-14T01:46:45;100940.19;;;3.34;59.12
71857;BME280;63344;46.980;28.882;2023-03-14T01:49:31;100944.53;;;3.35;58.80
71857;BME280;63344;46.980;28.882;2023-03-14T01:52:05;100937.56;;;3.31;59.02
71857;BME280;63344;46.980;28.882;2023-03-14T01:54:37;100929.72;;;3.25;58.89
71857;BME280;63344;46.980;28.882;2023-03-14T01:57:39;100936.66;;;3.35;58.84
71857;BME280;63344;46.980;28.882;2023-03-14T02:00:20;100925.28;;;3.33;59.01
71857;BME280;63344;46.980;28.882;2023-03-14T02:02:55;100932.31;;;3.31;59.16
71857;BME280;63344;46.980;28.882;2023-03-14T02:05:30;100929.72;;;3.28;59.09
71857;BME280;63344;46.980;28.882;2023-03-14T02:08:00;100922.72;;;3.22;59.04
71857;BME280;63344;46.980;28.882;2023-03-14T02:10:32;100921.00;;;3.18;59.27
71857;BME280;63344;46.980;28.882;2023-03-14T02:13:02;100925.34;;;3.17;59.14
71857;BME280;63344;46.980;28.882;2023-03-14T02:15:31;100918.38;;;3.13;59.34
71857;BME280;63344;46.980;28.882;2023-03-14T02:18:01;100916.66;;;3.08;59.44
71857;BME280;63344;46.980;28.882;2023-03-14T02:23:48;100912.28;;;3.05;59.82
71857;BME280;63344;46.980;28.882;2023-03-14T02:26:31;100908.81;;;2.97;59.97
71857;BME280;63344;46.980;28.882;2023-03-14T02:29:02;100902.69;;;2.93;60.32
71857;BME280;63344;46.980;28.882;2023-03-14T02:31:30;100906.19;;;2.92;59.92
71857;BME280;63344;46.980;28.882;2023-03-14T02:33:58;100905.34;;;2.89;59.95
71857;BME280;63344;46.980;28.882;2023-03-14T02:36:27;100900.09;;;2.79;60.06
71857;BME280;63344;46.980;28.882;2023-03-14T02:39:11;100901.00;;;2.78;59.95
71857;BME280;63344;46.980;28.882;2023-03-14T02:41:41;100908.88;;;2.72;59.92
71857;BME280;63344;46.980;28.882;2023-03-14T02:44:09;100898.38;;;2.71;59.74
71857;BME280;63344;46.980;28.882;2023-03-14T02:46:36;100913.25;;;2.72;59.47
71857;BME280;63344;46.980;28.882;2023-03-14T02:49:08;100907.13;;;2.67;59.56
71857;BME280;63344;46.980;28.882;2023-03-14T02:51:37;100917.59;;;2.71;59.31
71857;BME280;63344;46.980;28.882;2023-03-14T02:54:04;100915.00;;;2.70;59.11
71857;BME280;63344;46.980;28.882;2023-03-14T02:56:32;100915.00;;;2.68;59.28
71857;BME280;63344;46.980;28.882;2023-03-14T02:59:05;100931.59;;;2.70;59.07
71857;BME280;63344;46.980;28.882;2023-03-14T03:01:34;100922.88;;;2.67;59.00
71857;BME280;63344;46.980;28.882;2023-03-14T03:04:01;100919.38;;;2.63;59.05
71857;BME280;63344;46.980;28.882;2023-03-14T03:06:29;100924.63;;;2.60;59.12
71857;BME280;63344;46.980;28.882;2023-03-14T03:08:56;100919.38;;;2.63;58.18
71857;BME280;63344;46.980;28.882;2023-03-14T03:11:23;100923.75;;;2.61;58.60
71857;BME280;63344;46.980;28.882;2023-03-14T03:13:50;100924.63;;;2.60;58.55
71857;BME280;63344;46.980;28.882;2023-03-14T03:16:18;100917.66;;;2.54;58.83
71857;BME280;63344;46.980;28.882;2023-03-14T03:18:45;100922.00;;;2.52;58.36
71857;BME280;63344;46.980;28.882;2023-03-14T03:21:13;100918.53;;;2.52;58.71
71857;BME280;63344;46.980;28.882;2023-03-14T03:23:40;100924.66;;;2.54;58.32
71857;BME280;63344;46.980;28.882;2023-03-14T03:26:09;100922.00;;;2.58;57.92
71857;BME280;63344;46.980;28.882;2023-03-14T03:28:36;100924.63;;;2.55;57.94
71857;BME280;63344;46.980;28.882;2023-03-14T03:31:08;100922.88;;;2.62;57.54
71857;BME280;63344;46.980;28.882;2023-03-14T03:33:36;100915.88;;;2.63;57.29
71857;BME280;63344;46.980;28.882;2023-03-14T03:36:05;100920.25;;;2.62;57.35
71857;BME280;63344;46.980;28.882;2023-03-14T03:38:32;100933.34;;;2.67;57.45
71857;BME280;63344;46.980;28.882;2023-03-14T03:41:03;100918.50;;;2.61;57.07
71857;BME280;63344;46.980;28.882;2023-03-14T03:43:30;100936.84;;;2.67;57.25
71857;BME280;63344;46.980;28.882;2023-03-14T03:45:57;100929.00;;;2.70;57.00
71857;BME280;63344;46.980;28.882;2023-03-14T03:48:25;100941.22;;;2.73;56.74
71857;BME280;63344;46.980;28.882;2023-03-14T03:50:52;100942.97;;;2.78;56.41
71857;BME280;63344;46.980;28.882;2023-03-14T03:53:19;100939.44;;;2.83;56.35
71857;BME280;63344;46.980;28.882;2023-03-14T03:55:59;100935.97;;;2.76;56.77
71857;BME280;63344;46.980;28.882;2023-03-14T03:58:26;100926.34;;;2.76;56.83
71857;BME280;63344;46.980;28.882;2023-03-14T04:00:54;100927.22;;;2.80;56.59
71857;BME280;63344;46.980;28.882;2023-03-14T04:03:22;100923.72;;;2.79;56.63
71857;BME280;63344;46.980;28.882;2023-03-14T04:06:00;100942.94;;;2.83;56.46
71857;BME280;63344;46.980;28.882;2023-03-14T04:08:29;100929.81;;;2.83;56.77
71857;BME280;63344;46.980;28.882;2023-03-14T04:10:58;100923.72;;;2.76;56.70
71857;BME280;63344;46.980;28.882;2023-03-14T04:13:29;100937.72;;;2.82;56.80
71857;BME280;63344;46.980;28.882;2023-03-14T04:15:59;100930.72;;;2.71;56.94
71857;BME280;63344;46.980;28.882;2023-03-14T04:18:27;100930.72;;;2.71;56.94
71857;BME280;63344;46.980;28.882;2023-03-14T04:20:57;100940.34;;;2.69;57.51
71857;BME280;63344;46.980;28.882;2023-03-14T04:23:25;100932.47;;;2.63;57.50
71857;BME280;63344;46.980;28.882;2023-03-14T04:25:53;100932.47;;;2.63;57.42
71857;BME280;63344;46.980;28.882;2023-03-14T04:28:21;100931.63;;;2.64;57.44
71857;BME280;63344;46.980;28.882;2023-03-14T04:30:49;100935.09;;;2.63;57.64
71857;BME280;63344;46.980;28.882;2023-03-14T04:33:16;100929.00;;;2.64;57.39
71857;BME280;63344;46.980;28.882;2023-03-14T04:35:45;100942.09;;;2.70;57.51
71857;BME280;63344;46.980;28.882;2023-03-14T04:38:13;100938.59;;;2.67;57.76
71857;BME280;63344;46.980;28.882;2023-03-14T04:40:41;100938.59;;;2.68;58.12
71857;BME280;63344;46.980;28.882;2023-03-14T04:43:08;100935.97;;;2.67;58.42
71857;BME280;63344;46.980;28.882;2023-03-14T04:45:41;100928.09;;;2.65;58.95
71857;BME280;63344;46.980;28.882;2023-03-14T04:48:09;100938.59;;;2.68;58.39
71857;BME280;63344;46.980;28.882;2023-03-14T04:50:38;100932.47;;;2.69;58.62
71857;BME280;63344;46.980;28.882;2023-03-14T04:53:06;100935.97;;;2.74;59.04
71857;BME280;63344;46.980;28.882;2023-03-14T04:55:33;100926.34;;;2.75;59.13
71857;BME280;63344;46.980;28.882;2023-03-14T04:58:01;100935.09;;;2.80;59.18
71857;BME280;63344;46.980;28.882;2023-03-14T05:00:28;100922.84;;;2.77;59.40
71857;BME280;63344;46.980;28.882;2023-03-14T05:02:59;100930.69;;;2.90;59.46
71857;BME280;63344;46.980;28.882;2023-03-14T05:05:29;100937.69;;;2.94;59.68
71857;BME280;63344;46.980;28.882;2023-03-14T05:07:57;100933.31;;;2.96;59.78
71857;BME280;63344;46.980;28.882;2023-03-14T05:10:26;100928.94;;;2.95;59.88
71857;BME280;63344;46.980;28.882;2023-03-14T05:12:54;100932.41;;;3.00;60.04
71857;BME280;63344;46.980;28.882;2023-03-14T05:15:22;100935.91;;;3.02;60.13
71857;BME280;63344;46.980;28.882;2023-03-14T05:17:49;100939.38;;;3.07;60.38
71857;BME280;63344;46.980;28.882;2023-03-14T05:20:16;100949.88;;;3.16;60.58
71857;BME280;63344;46.980;28.882;2023-03-14T05:22:43;100946.34;;;3.21;60.75
71857;BME280;63344;46.980;28.882;2023-03-14T05:25:11;100929.75;;;3.22;60.56
71857;BME280;63344;46.980;28.882;2023-03-14T05:27:38;100951.56;;;3.36;60.98
71857;BME280;63344;46.980;28.882;2023-03-14T05:30:07;100941.91;;;3.36;60.79
71857;BME280;63344;46.980;28.882;2023-03-14T05:32:37;100947.16;;;3.39;61.05
71857;BME280;63344;46.980;28.882;2023-03-14T05:35:05;100942.72;;;3.49;61.33
71857;BME280;63344;46.980;28.882;2023-03-14T05:37:40;100933.94;;;3.59;61.29
71857;BME280;63344;46.980;28.882;2023-03-14T05:40:08;100941.78;;;3.64;61.48
71857;BME280;63344;46.980;28.882;2023-03-14T05:42:40;100926.91;;;3.65;61.93
71857;BME280;63344;46.980;28.882;2023-03-14T05:45:13;100933.84;;;3.76;61.76
71857;BME280;63344;46.980;28.882;2023-03-14T05:47:49;100921.53;;;3.83;61.84
71857;BME280;63344;46.980;28.882;2023-03-14T05:50:17;100936.34;;;3.99;61.81
71857;BME280;63344;46.980;28.882;2023-03-14T05:52:45;100938.00;;;4.10;61.59
71857;BME280;63344;46.980;28.882;2023-03-14T05:55:13;100930.09;;;4.13;61.08
71857;BME280;63344;46.980;28.882;2023-03-14T05:57:40;100929.97;;;4.30;60.93
71857;BME280;63344;46.980;28.882;2023-03-14T06:00:08;100925.56;;;4.33;60.49
71857;BME280;63344;46.980;28.882;2023-03-14T06:02:35;100929.88;;;4.44;60.49
71857;BME280;63344;46.980;28.882;2023-03-14T06:05:03;100919.31;;;4.45;60.95
71857;BME280;63344;46.980;28.882;2023-03-14T06:07:31;100924.44;;;4.59;60.62
71857;BME280;63344;46.980;28.882;2023-03-14T06:09:58;100920.03;;;4.64;60.10
71857;BME280;63344;46.980;28.882;2023-03-14T06:12:25;100915.59;;;4.69;60.38
71857;BME280;63344;46.980;28.882;2023-03-14T06:14:53;100911.09;;;4.79;60.14
71857;BME280;63344;46.980;28.882;2023-03-14T06:17:36;100918.00;;;4.91;59.54
71857;BME280;63344;46.980;28.882;2023-03-14T06:20:09;100914.41;;;4.99;59.53
71857;BME280;63344;46.980;28.882;2023-03-14T06:22:37;100914.34;;;5.06;58.80
71857;BME280;63344;46.980;28.882;2023-03-14T06:25:06;100915.97;;;5.16;57.99
71857;BME280;63344;46.980;28.882;2023-03-14T06:27:34;100911.47;;;5.23;57.24
71857;BME280;63344;46.980;28.882;2023-03-14T06:30:02;100897.44;;;5.24;57.31
71857;BME280;63344;46.980;28.882;2023-03-14T06:32:29;100907.84;;;5.33;57.22
71857;BME280;63344;46.980;28.882;2023-03-14T06:34:57;100901.59;;;5.42;56.62
71857;BME280;63344;46.980;28.882;2023-03-14T06:37:28;100898.91;;;5.46;56.88
71857;BME280;63344;46.980;28.882;2023-03-14T06:39:56;100905.72;;;5.61;56.75
71857;BME280;63344;46.980;28.882;2023-03-14T06:42:23;100897.75;;;5.66;56.09
71857;BME280;63344;46.980;28.882;2023-03-14T06:44:51;100897.63;;;5.75;55.76
71857;BME280;63344;46.980;28.882;2023-03-14T06:47:17;100893.03;;;5.89;55.14
71857;BME280;63344;46.980;28.882;2023-03-14T06:49:46;100895.53;;;5.98;54.02
71857;BME280;63344;46.980;28.882;2023-03-14T06:52:16;100893.56;;;6.13;53.12
71857;BME280;63344;46.980;28.882;2023-03-14T06:54:43;100896.03;;;6.25;52.48
71857;BME280;63344;46.980;28.882;2023-03-14T06:57:10;100877.44;;;6.31;52.63
71857;BME280;63344;46.980;28.882;2023-03-14T06:59:37;100892.13;;;6.46;52.04
71857;BME280;63344;46.980;28.882;2023-03-14T07:02:09;100878.66;;;6.62;51.56
71857;BME280;63344;46.980;28.882;2023-03-14T07:04:38;100867.06;;;6.69;52.16
71857;BME280;63344;46.980;28.882;2023-03-14T07:07:05;100879.13;;;6.84;50.82
71857;BME280;63344;46.980;28.882;2023-03-14T07:09:34;100870.16;;;6.92;50.95
71857;BME280;63344;46.980;28.882;2023-03-14T07:12:02;100864.59;;;7.06;49.35
71857;BME280;63344;46.980;28.882;2023-03-14T07:14:31;100868.78;;;7.16;48.76
71857;BME280;63344;46.980;28.882;2023-03-14T07:16:58;100878.25;;;7.27;47.98
71857;BME280;63344;46.980;28.882;2023-03-14T07:19:26;100870.97;;;7.38;47.18
71857;BME280;63344;46.980;28.882;2023-03-14T07:22:08;100871.84;;;7.38;47.12
71857;BME280;63344;46.980;28.882;2023-03-14T07:24:37;100863.13;;;7.35;46.74
71857;BME280;63344;46.980;28.882;2023-03-14T07:27:04;100870.78;;;7.47;45.77
71857;BME280;63344;46.980;28.882;2023-03-14T07:29:33;100857.50;;;7.50;45.55
71857;BME280;63344;46.980;28.882;2023-03-14T07:32:00;100864.13;;;7.68;44.07
71857;BME280;63344;46.980;28.882;2023-03-14T07:34:27;100857.84;;;7.74;44.35
71857;BME280;63344;46.980;28.882;2023-03-14T07:36:54;100855.97;;;7.79;44.20
71857;BME280;63344;46.980;28.882;2023-03-14T07:39:22;100855.66;;;7.93;42.34
71857;BME280;63344;46.980;28.882;2023-03-14T07:41:49;100860.69;;;8.02;41.21
71857;BME280;63344;46.980;28.882;2023-03-14T07:44:18;100870.13;;;8.12;41.49
71857;BME280;63344;46.980;28.882;2023-03-14T07:46:45;100864.59;;;8.23;41.79
71857;BME280;63344;46.980;28.882;2023-03-14T07:49:12;100854.41;;;8.42;39.56
71857;BME280;63344;46.980;28.882;2023-03-14T07:51:39;100855.91;;;8.52;39.96
71857;BME280;63344;46.980;28.882;2023-03-14T07:54:07;100865.13;;;8.70;37.88
71857;BME280;63344;46.980;28.882;2023-03-14T07:56:34;100848.94;;;8.83;36.11
71857;BME280;63344;46.980;28.882;2023-03-14T07:59:03;100836.53;;;8.85;36.75
71857;BME280;63344;46.980;28.882;2023-03-14T08:01:31;100839.00;;;8.91;38.06
71857;BME280;63344;46.980;28.882;2023-03-14T08:03:58;100827.56;;;8.89;37.93
71857;BME280;63344;46.980;28.882;2023-03-14T08:06:26;100828.56;;;8.85;37.52
71857;BME280;63344;46.980;28.882;2023-03-14T08:08:53;100831.94;;;8.90;37.09
71857;BME280;63344;46.980;28.882;2023-03-14T08:11:23;100822.94;;;8.97;36.74
71857;BME280;63344;46.980;28.882;2023-03-14T08:13:50;100821.00;;;9.02;35.78
71857;BME280;63344;46.980;28.882;2023-03-14T08:16:20;100812.03;;;9.06;36.70
71857;BME280;63344;46.980;28.882;2023-03-14T08:18:48;100814.31;;;9.18;37.32
71857;BME280;63344;46.980;28.882;2023-03-14T08:21:24;100788.19;;;9.36;34.98
71857;BME280;63344;46.980;28.882;2023-03-14T08:23:51;100802.78;;;9.49;34.06
71857;BME280;63344;46.980;28.882;2023-03-14T08:26:18;100805.16;;;9.59;34.08
71857;BME280;63344;46.980;28.882;2023-03-14T08:28:46;100802.25;;;9.66;33.43
71857;BME280;63344;46.980;28.882;2023-03-14T08:31:13;100796.69;;;9.74;32.51
71857;BME280;63344;46.980;28.882;2023-03-14T08:33:41;100783.34;;;9.77;32.27
71857;BME280;63344;46.980;28.882;2023-03-14T08:36:09;100767.78;;;9.93;32.61
71857;BME280;63344;46.980;28.882;2023-03-14T08:38:36;100796.19;;;10.16;31.32
71857;BME280;63344;46.980;28.882;2023-03-14T08:41:15;100796.41;;;11.76;29.76
71857;BME280;63344;46.980;28.882;2023-03-14T08:43:56;100785.31;;;13.28;27.31
71857;BME280;63344;46.980;28.882;2023-03-14T08:46:23;100788.00;;;14.53;25.96
71857;BME280;63344;46.980;28.882;2023-03-14T08:48:55;100784.91;;;15.27;25.29
71857;BME280;63344;46.980;28.882;2023-03-14T08:51:22;100773.41;;;16.19;24.46
71857;BME280;63344;46.980;28.882;2023-03-14T08:53:50;100774.03;;;16.53;23.46
71857;BME280;63344;46.980;28.882;2023-03-14T08:56:22;100765.22;;;17.23;23.28
71857;BME280;63344;46.980;28.882;2023-03-14T08:58:53;100770.66;;;18.17;22.79
71857;BME280;63344;46.980;28.882;2023-03-14T09:01:21;100769.19;;;18.64;21.07
71857;BME280;63344;46.980;28.882;2023-03-14T09:03:51;100771.56;;;18.56;21.06
71857;BME280;63344;46.980;28.882;2023-03-14T09:06:18;100760.66;;;18.19;21.41
71857;BME280;63344;46.980;28.882;2023-03-14T09:08:46;100756.72;;;18.76;20.90
71857;BME280;63344;46.980;28.882;2023-03-14T09:11:14;100723.47;;;18.77;20.88
71857;BME280;63344;46.980;28.882;2023-03-14T09:13:41;100736.22;;;19.12;20.59
71857;BME280;63344;46.980;28.882;2023-03-14T09:16:09;100750.56;;;19.74;20.98
71857;BME280;63344;46.980;28.882;2023-03-14T09:18:36;100734.41;;;20.09;19.70
71857;BME280;63344;46.980;28.882;2023-03-14T09:21:04;100728.84;;;20.46;20.27
71857;BME280;63344;46.980;28.882;2023-03-14T09:23:31;100738.19;;;20.64;19.49
71857;BME280;63344;46.980;28.882;2023-03-14T09:25:59;100738.38;;;20.27;18.36
71857;BME280;63344;46.980;28.882;2023-03-14T09:28:27;100741.91;;;19.81;19.01
71857;BME280;63344;46.980;28.882;2023-03-14T09:31:08;100739.69;;;19.38;19.70
71857;BME280;63344;46.980;28.882;2023-03-14T09:33:37;100723.31;;;19.04;20.00
71857;BME280;63344;46.980;28.882;2023-03-14T09:36:05;100709.84;;;19.04;20.07
71857;BME280;63344;46.980;28.882;2023-03-14T09:38:32;100718.97;;;19.52;19.85
71857;BME280;63344;46.980;28.882;2023-03-14T09:41:01;100712.75;;;19.38;20.11
71857;BME280;63344;46.980;28.882;2023-03-14T09:43:31;100709.38;;;18.86;20.42
71857;BME280;63344;46.980;28.882;2023-03-14T09:46:02;100718.47;;;19.09;21.03
71857;BME280;63344;46.980;28.882;2023-03-14T09:48:32;100697.84;;;18.97;19.50
71857;BME280;63344;46.980;28.882;2023-03-14T09:51:04;100704.03;;;19.10;20.44
71857;BME280;63344;46.980;28.882;2023-03-14T09:53:40;100701.63;;;18.82;20.74
71857;BME280;63344;46.980;28.882;2023-03-14T09:56:13;100698.97;;;18.43;21.63
71857;BME280;63344;46.980;28.882;2023-03-14T09:58:43;100691.78;;;19.79;20.60
71857;BME280;63344;46.980;28.882;2023-03-14T10:01:15;100687.59;;;21.12;19.88
71857;BME280;63344;46.980;28.882;2023-03-14T10:03:45;100678.56;;;22.19;18.31
71857;BME280;63344;46.980;28.882;2023-03-14T10:06:13;100690.09;;;22.42;18.26
71857;BME280;63344;46.980;28.882;2023-03-14T10:08:42;100687.38;;;22.33;17.99
71857;BME280;63344;46.980;28.882;2023-03-14T10:11:16;100679.28;;;21.79;18.81
71857;BME280;63344;46.980;28.882;2023-03-14T10:14:08;100687.31;;;21.91;19.28
71857;BME280;63344;46.980;28.882;2023-03-14T10:16:45;100690.69;;;21.51;18.99
71857;BME280;63344;46.980;28.882;2023-03-14T10:19:16;100661.97;;;20.95;19.14
71857;BME280;63344;46.980;28.882;2023-03-14T10:22:01;100648.28;;;21.19;19.80
71857;BME280;63344;46.980;28.882;2023-03-14T10:24:31;100646.50;;;21.73;19.10
71857;BME280;63344;46.980;28.882;2023-03-14T10:27:05;100648.47;;;22.13;19.18
71857;BME280;63344;46.980;28.882;2023-03-14T10:29:34;100636.78;;;22.12;19.48
71857;BME280;63344;46.980;28.882;2023-03-14T10:32:19;100653.16;;;22.11;18.80
71857;BME280;63344;46.980;28.882;2023-03-14T10:38:15;100620.56;;;17.98;21.73
71857;BME280;63344;46.980;28.882;2023-03-14T10:40:49;100639.78;;;16.56;22.63
71857;BME280;63344;46.980;28.882;2023-03-14T10:43:22;100621.50;;;15.61;24.30
71857;BME280;63344;46.980;28.882;2023-03-14T10:46:13;100625.66;;;15.36;24.72
71857;BME280;63344;46.980;28.882;2023-03-14T10:49:16;100622.97;;;15.36;24.41
71857;BME280;63344;46.980;28.882;2023-03-14T10:52:25;100618.63;;;15.33;24.32
71857;BME280;63344;46.980;28.882;2023-03-14T10:55:40;100606.88;;;15.22;25.18
71857;BME280;63344;46.980;28.882;2023-03-14T10:58:27;100602.69;;;15.62;25.36
71857;BME280;63344;46.980;28.882;2023-03-14T11:03:43;100567.34;;;15.41;24.57
71857;BME280;63344;46.980;28.882;2023-03-14T11:06:20;100557.97;;;15.34;24.38
71857;BME280;63344;46.980;28.882;2023-03-14T11:09:02;100571.19;;;15.82;24.32
71857;BME280;63344;46.980;28.882;2023-03-14T11:11:32;100552.88;;;16.73;23.80
71857;BME280;63344;46.980;28.882;2023-03-14T11:17:24;100532.41;;;17.52;21.78
71857;BME280;63344;46.980;28.882;2023-03-14T11:23:07;100528.94;;;18.14;21.58
71857;BME280;63344;46.980;28.882;2023-03-14T11:26:12;100526.84;;;18.43;21.40
71857;BME280;63344;46.980;28.882;2023-03-14T11:28:48;100546.19;;;18.85;21.02
71857;BME280;63344;46.980;28.882;2023-03-14T11:36:51;100510.13;;;18.14;20.65
71857;BME280;63344;46.980;28.882;2023-03-14T11:39:20;100490.38;;;18.02;20.93
71857;BME280;63344;46.980;28.882;2023-03-14T11:41:53;100493.59;;;17.95;19.90
71857;BME280;63344;46.980;28.882;2023-03-14T11:44:25;100475.41;;;16.96;21.00
71857;BME280;63344;46.980;28.882;2023-03-14T11:47:06;100485.84;;;16.31;21.56
71857;BME280;63344;46.980;28.882;2023-03-14T11:52:20;100473.03;;;16.64;21.56
71857;BME280;63344;46.980;28.882;2023-03-14T11:55:19;100458.78;;;17.29;21.25
71857;BME280;63344;46.980;28.882;2023-03-14T11:57:50;100451.09;;;17.11;21.54
71857;BME280;63344;46.980;28.882;2023-03-14T12:00:19;100445.03;;;17.85;20.89
71857;BME280;63344;46.980;28.882;2023-03-14T12:02:56;100456.84;;;18.56;19.89
71857;BME280;63344;46.980;28.882;2023-03-14T12:08:49;100451.22;;;19.30;19.02
71857;BME280;63344;46.980;28.882;2023-03-14T12:14:01;100441.84;;;19.69;18.93
71857;BME280;63344;46.980;28.882;2023-03-14T12:16:38;100444.34;;;19.15;18.53
71857;BME280;63344;46.980;28.882;2023-03-14T12:24:37;100420.63;;;19.42;18.93
71857;BME280;63344;46.980;28.882;2023-03-14T12:30:30;100422.50;;;20.42;17.99
71857;BME280;63344;46.980;28.882;2023-03-14T12:35:59;100429.94;;;20.17;17.83
71857;BME280;63344;46.980;28.882;2023-03-14T12:43:49;100397.56;;;18.34;18.55
71857;BME280;63344;46.980;28.882;2023-03-14T13:01:56;100379.38;;;18.13;18.82
71857;BME280;63344;46.980;28.882;2023-03-14T13:13:11;100369.41;;;16.50;20.82
71857;BME280;63344;46.980;28.882;2023-03-14T13:15:46;100358.44;;;16.53;20.48
71857;BME280;63344;46.980;28.882;2023-03-14T13:18:33;100365.94;;;17.14;19.80
71857;BME280;63344;46.980;28.882;2023-03-14T13:21:17;100369.34;;;17.41;19.54
71857;BME280;63344;46.980;28.882;2023-03-14T13:24:07;100351.03;;;17.09;19.49
71857;BME280;63344;46.980;28.882;2023-03-14T13:26:45;100351.50;;;16.63;19.73
71857;BME280;63344;46.980;28.882;2023-03-14T13:29:24;100358.69;;;16.23;19.91
71857;BME280;63344;46.980;28.882;2023-03-14T13:31:54;100337.00;;;15.71;20.28
71857;BME280;63344;46.980;28.882;2023-03-14T13:34:26;100343.47;;;15.54;21.17
71857;BME280;63344;46.980;28.882;2023-03-14T13:36:54;100336.97;;;15.59;21.77
71857;BME280;63344;46.980;28.882;2023-03-14T13:39:31;100314.28;;;15.64;20.87
71857;BME280;63344;46.980;28.882;2023-03-14T13:42:00;100308.59;;;15.98;20.63
71857;BME280;63344;46.980;28.882;2023-03-14T13:44:37;100304.16;;;16.49;20.59
71857;BME280;63344;46.980;28.882;2023-03-14T13:47:11;100309.72;;;16.86;20.53
71857;BME280;63344;46.980;28.882;2023-03-14T13:49:44;100285.75;;;16.70;18.76
71857;BME280;63344;46.980;28.882;2023-03-14T13:52:32;100293.63;;;16.86;18.34
71857;BME280;63344;46.980;28.882;2023-03-14T13:55:03;100299.31;;;16.82;18.70
71857;BME280;63344;46.980;28.882;2023-03-14T13:57:57;100292.94;;;16.70;18.15
71857;BME280;63344;46.980;28.882;2023-03-14T14:00:26;100298.28;;;16.57;18.24
71857;BME280;63344;46.980;28.882;2023-03-14T14:03:00;100273.91;;;16.22;18.36
71857;BME280;63344;46.980;28.882;2023-03-14T14:05:29;100272.28;;;16.19;18.94
71857;BME280;63344;46.980;28.882;2023-03-14T14:07:56;100278.66;;;15.91;18.69
71857;BME280;63344;46.980;28.882;2023-03-14T14:10:36;100277.22;;;15.58;19.28
71857;BME280;63344;46.980;28.882;2023-03-14T14:13:06;100263.66;;;15.47;19.35
71857;BME280;63344;46.980;28.882;2023-03-14T14:15:48;100275.16;;;15.34;19.23
71857;BME280;63344;46.980;28.882;2023-03-14T14:18:23;100272.63;;;15.19;19.59